createdAt,value
2022-07-31T00:00:27.245Z,19.30
2022-07-31T00:02:55.351Z,19.30
2022-07-31T00:05:23.524Z,19.20
2022-07-31T00:07:51.596Z,19.20
2022-07-31T00:10:19.795Z,19.20
2022-07-31T00:12:49.054Z,19.10
2022-07-31T00:15:16.949Z,19.10
2022-07-31T00:17:45.912Z,19.10
2022-07-31T00:20:15.724Z,19.00
2022-07-31T00:22:44.113Z,19.00
2022-07-31T00:25:12.607Z,19.00
2022-07-31T00:27:40.618Z,19.00
2022-07-31T00:30:12.938Z,19.00
2022-07-31T00:32:41.817Z,18.90
2022-07-31T00:35:10.572Z,18.90
2022-07-31T00:37:40.617Z,18.90
2022-07-31T00:40:12.860Z,18.90
2022-07-31T00:42:41.239Z,18.90
2022-07-31T00:45:13.745Z,18.90
2022-07-31T00:47:42.147Z,18.90
2022-07-31T00:50:11.309Z,18.90
2022-07-31T00:52:39.390Z,18.90
2022-07-31T00:55:08.451Z,18.90
2022-07-31T00:57:36.958Z,18.80
2022-07-31T01:00:06.718Z,18.80
2022-07-31T01:02:36.921Z,18.80
2022-07-31T01:05:05.306Z,18.80
2022-07-31T01:07:33.168Z,18.80
2022-07-31T01:10:02.574Z,18.70
2022-07-31T01:12:36.784Z,18.70
2022-07-31T01:15:10.291Z,18.70
2022-07-31T01:17:41.015Z,18.60
2022-07-31T01:20:12.048Z,18.60
2022-07-31T01:23:03.727Z,18.60
2022-07-31T01:25:46.087Z,18.60
2022-07-31T01:28:25.187Z,18.60
2022-07-31T01:31:25.437Z,18.50
2022-07-31T01:33:54.578Z,18.40
2022-07-31T01:36:26.618Z,18.40
2022-07-31T01:38:58.224Z,18.30
2022-07-31T01:41:31.220Z,18.30
2022-07-31T01:44:01.673Z,18.30
2022-07-31T01:46:37.331Z,18.20
2022-07-31T01:49:10.747Z,18.20
2022-07-31T01:51:40.296Z,18.10
2022-07-31T01:54:09.814Z,18.00
2022-07-31T01:56:39.000Z,18.00
2022-07-31T01:59:19.983Z,17.90
2022-07-31T02:01:50.759Z,17.90
2022-07-31T02:04:20.917Z,17.80
2022-07-31T02:06:49.988Z,17.80
2022-07-31T02:09:20.382Z,17.70
2022-07-31T02:11:54.591Z,17.70
2022-07-31T02:14:23.909Z,17.60
2022-07-31T02:22:16.466Z,17.50
2022-07-31T02:24:44.446Z,17.40
2022-07-31T02:27:54.310Z,17.40
2022-07-31T02:30:05.143Z,17.30
2022-07-31T02:32:34.694Z,17.30
2022-07-31T02:35:04.393Z,17.30
2022-07-31T02:37:39.562Z,17.30
2022-07-31T02:40:10.813Z,17.30
2022-07-31T02:42:41.028Z,17.30
2022-07-31T02:45:11.213Z,17.20
2022-07-31T02:47:39.944Z,17.20
2022-07-31T02:50:09.198Z,17.20
2022-07-31T02:52:39.021Z,17.20
2022-07-31T02:55:08.177Z,17.10
2022-07-31T02:57:36.153Z,17.10
2022-07-31T03:00:19.595Z,17.10
2022-07-31T03:02:47.804Z,17.00
2022-07-31T03:05:15.810Z,17.00
2022-07-31T03:07:45.356Z,16.90
2022-07-31T03:10:13.908Z,16.90
2022-07-31T03:12:44.396Z,16.80
2022-07-31T03:15:14.784Z,16.80
2022-07-31T03:17:45.541Z,16.80
2022-07-31T03:20:16.207Z,16.80
2022-07-31T03:22:46.584Z,16.70
2022-07-31T03:25:21.540Z,16.70
2022-07-31T03:27:52.372Z,16.70
2022-07-31T03:30:26.086Z,16.70
2022-07-31T03:32:54.345Z,16.70
2022-07-31T03:35:22.483Z,16.60
2022-07-31T03:37:51.890Z,16.60
2022-07-31T03:40:20.006Z,16.60
2022-07-31T03:42:49.918Z,16.60
2022-07-31T03:45:18.820Z,16.60
2022-07-31T03:47:47.021Z,16.50
2022-07-31T03:50:18.452Z,16.60
2022-07-31T03:52:48.367Z,16.50
2022-07-31T03:55:18.007Z,16.50
2022-07-31T03:57:47.655Z,16.50
2022-07-31T04:00:18.034Z,16.50
2022-07-31T04:02:47.168Z,16.40
2022-07-31T04:05:15.426Z,16.40
2022-07-31T04:07:43.349Z,16.40
2022-07-31T04:10:12.410Z,16.50
2022-07-31T04:12:42.567Z,16.50
2022-07-31T04:15:11.289Z,16.60
2022-07-31T04:17:39.481Z,16.60
2022-07-31T04:20:09.020Z,16.60
2022-07-31T04:22:37.100Z,16.70
2022-07-31T04:25:08.654Z,16.70
2022-07-31T04:27:48.562Z,16.70
2022-07-31T04:30:18.693Z,16.70
2022-07-31T04:32:46.922Z,16.70
2022-07-31T04:35:15.019Z,16.80
2022-07-31T04:37:48.202Z,16.90
2022-07-31T04:40:17.100Z,17.00
2022-07-31T04:42:45.136Z,17.10
2022-07-31T04:45:13.228Z,17.20
2022-07-31T04:47:42.617Z,17.40
2022-07-31T04:50:11.180Z,17.60
2022-07-31T04:52:40.023Z,17.80
2022-07-31T04:55:08.627Z,18.00
2022-07-31T04:57:36.758Z,18.10
2022-07-31T05:00:06.705Z,18.30
2022-07-31T05:02:36.875Z,18.50
2022-07-31T05:05:07.667Z,18.60
2022-07-31T05:07:36.148Z,18.70
2022-07-31T05:10:07.194Z,18.70
2022-07-31T05:12:36.774Z,18.80
2022-07-31T05:15:05.922Z,18.90
2022-07-31T05:17:54.266Z,19.00
2022-07-31T05:20:33.778Z,19.10
2022-07-31T05:23:29.397Z,19.10
2022-07-31T05:26:06.273Z,19.10
2022-07-31T05:28:35.714Z,19.10
2022-07-31T05:31:07.772Z,19.10
2022-07-31T05:33:40.576Z,19.00
2022-07-31T05:36:17.440Z,18.90
2022-07-31T05:38:46.513Z,18.90
2022-07-31T05:41:22.860Z,18.80
2022-07-31T05:43:51.171Z,18.80
2022-07-31T05:46:21.183Z,18.70
2022-07-31T05:48:49.646Z,18.80
2022-07-31T05:51:31.875Z,18.70
2022-07-31T05:54:04.397Z,18.70
2022-07-31T05:56:57.214Z,18.70
2022-07-31T05:59:41.645Z,18.80
2022-07-31T06:02:10.345Z,18.80
2022-07-31T06:04:38.841Z,18.90
2022-07-31T06:07:54.438Z,19.00
2022-07-31T06:10:23.352Z,19.10
2022-07-31T06:12:51.730Z,19.30
2022-07-31T06:15:19.818Z,19.50
2022-07-31T06:17:48.608Z,19.70
2022-07-31T06:20:16.940Z,19.90
2022-07-31T06:22:46.606Z,20.10
2022-07-31T06:25:15.323Z,20.20
2022-07-31T06:27:43.811Z,20.20
2022-07-31T06:30:16.270Z,20.30
2022-07-31T06:32:47.634Z,20.20
2022-07-31T06:35:21.027Z,20.40
2022-07-31T06:37:50.711Z,20.60
2022-07-31T06:40:24.965Z,20.60
2022-07-31T06:42:53.316Z,20.70
2022-07-31T06:45:48.521Z,20.90
2022-07-31T06:48:15.252Z,21.00
2022-07-31T06:50:43.975Z,21.10
2022-07-31T06:53:13.637Z,21.20
2022-07-31T06:55:44.850Z,21.40
2022-07-31T06:58:13.395Z,21.50
2022-07-31T07:00:41.648Z,21.50
2022-07-31T07:03:12.609Z,21.50
2022-07-31T07:05:45.093Z,21.50
2022-07-31T07:08:17.633Z,21.50
2022-07-31T07:10:45.884Z,21.60
2022-07-31T07:13:13.991Z,21.90
2022-07-31T07:15:41.952Z,21.90
2022-07-31T07:18:10.058Z,22.00
2022-07-31T07:20:38.225Z,22.10
2022-07-31T07:23:06.488Z,22.20
2022-07-31T07:25:36.137Z,22.30
2022-07-31T07:28:05.524Z,22.40
2022-07-31T07:30:33.650Z,22.50
2022-07-31T07:33:02.592Z,22.60
2022-07-31T07:35:40.995Z,22.60
2022-07-31T07:38:09.312Z,22.70
2022-07-31T07:40:44.933Z,22.90
2022-07-31T07:43:13.150Z,23.00
2022-07-31T07:45:41.507Z,23.10
2022-07-31T07:48:09.939Z,23.10
2022-07-31T07:50:38.205Z,23.20
2022-07-31T07:53:08.320Z,23.30
2022-07-31T07:55:40.194Z,23.40
2022-07-31T07:58:11.985Z,23.50
2022-07-31T08:00:40.703Z,23.50
2022-07-31T08:03:48.428Z,23.50
2022-07-31T08:05:57.370Z,23.50
2022-07-31T08:08:25.279Z,23.40
2022-07-31T08:10:53.320Z,23.40
2022-07-31T08:13:27.497Z,23.50
2022-07-31T08:15:55.441Z,23.50
2022-07-31T08:18:23.380Z,23.50
2022-07-31T08:20:56.374Z,23.50
2022-07-31T08:23:24.240Z,23.50
2022-07-31T08:25:52.611Z,23.60
2022-07-31T08:28:24.111Z,23.60
2022-07-31T08:30:56.606Z,23.60
2022-07-31T08:33:26.740Z,23.60
2022-07-31T08:35:59.466Z,23.60
2022-07-31T08:38:29.175Z,23.60
2022-07-31T08:40:57.521Z,23.40
2022-07-31T08:44:02.404Z,23.50
2022-07-31T08:46:18.727Z,23.50
2022-07-31T08:48:47.666Z,23.40
2022-07-31T08:51:18.495Z,23.30
2022-07-31T08:53:47.693Z,23.30
2022-07-31T08:56:16.363Z,23.30
2022-07-31T08:58:54.677Z,23.40
2022-07-31T09:01:25.149Z,23.50
2022-07-31T09:03:54.368Z,23.50
2022-07-31T09:06:25.524Z,23.60
2022-07-31T09:08:53.931Z,23.60
2022-07-31T09:11:22.429Z,23.70
2022-07-31T09:14:02.419Z,24.00
2022-07-31T09:16:32.080Z,24.00
2022-07-31T09:19:01.871Z,24.00
2022-07-31T09:21:41.529Z,24.20
2022-07-31T09:24:11.318Z,24.10
2022-07-31T09:26:41.006Z,24.00
2022-07-31T09:29:14.131Z,24.00
2022-07-31T09:31:42.306Z,24.00
2022-07-31T09:34:10.502Z,24.00
2022-07-31T09:36:38.576Z,24.10
2022-07-31T09:39:14.911Z,24.20
2022-07-31T09:42:01.501Z,24.40
2022-07-31T09:44:41.364Z,24.40
2022-07-31T09:47:21.916Z,24.50
2022-07-31T09:49:55.855Z,24.50
2022-07-31T09:52:34.894Z,24.60
2022-07-31T09:55:15.678Z,24.70
2022-07-31T09:57:54.869Z,24.80
2022-07-31T10:00:25.009Z,24.80
2022-07-31T10:02:55.386Z,24.90
2022-07-31T10:05:25.638Z,25.00
2022-07-31T10:07:57.233Z,25.00
2022-07-31T10:10:26.316Z,25.00
2022-07-31T10:12:56.574Z,25.00
2022-07-31T10:15:27.955Z,25.20
2022-07-31T10:17:57.122Z,25.20
2022-07-31T10:20:26.364Z,25.10
2022-07-31T10:23:00.305Z,25.00
2022-07-31T10:25:30.462Z,25.00
2022-07-31T10:27:59.709Z,25.00
2022-07-31T10:30:29.690Z,25.00
2022-07-31T10:32:58.806Z,25.00
2022-07-31T10:35:27.934Z,25.10
2022-07-31T10:38:05.079Z,25.10
2022-07-31T10:40:44.116Z,25.30
2022-07-31T10:43:24.719Z,25.30
2022-07-31T10:45:58.986Z,25.40
2022-07-31T10:48:27.008Z,25.60
2022-07-31T10:51:03.238Z,25.80
2022-07-31T10:53:49.994Z,25.90
2022-07-31T10:56:19.397Z,26.20
2022-07-31T10:58:50.810Z,26.40
2022-07-31T11:01:20.445Z,26.50
2022-07-31T11:03:49.929Z,26.80
2022-07-31T11:06:18.831Z,26.90
2022-07-31T11:08:48.746Z,27.00
2022-07-31T11:11:17.872Z,27.00
2022-07-31T11:13:50.954Z,27.10
2022-07-31T11:16:21.740Z,27.20
2022-07-31T11:18:58.572Z,27.30
2022-07-31T11:21:39.574Z,27.40
2022-07-31T11:24:15.497Z,27.40
2022-07-31T11:26:51.667Z,27.60
2022-07-31T11:29:59.902Z,27.70
2022-07-31T11:32:35.253Z,27.80
2022-07-31T11:35:06.609Z,27.90
2022-07-31T11:37:56.454Z,27.80
2022-07-31T11:40:27.681Z,27.80
2022-07-31T11:45:50.511Z,27.60
2022-07-31T11:48:21.661Z,27.60
2022-07-31T11:50:51.079Z,27.80
2022-07-31T11:53:20.184Z,27.90
2022-07-31T11:55:50.831Z,28.10
2022-07-31T11:58:21.305Z,28.10
2022-07-31T12:00:51.386Z,28.20
2022-07-31T12:03:23.468Z,28.20
2022-07-31T12:05:54.223Z,28.30
2022-07-31T12:08:24.571Z,28.30
2022-07-31T12:10:55.222Z,28.40
2022-07-31T12:13:27.596Z,28.40
2022-07-31T12:16:04.751Z,28.40
2022-07-31T12:18:54.030Z,28.40
2022-07-31T12:21:30.537Z,28.60
2022-07-31T12:24:00.838Z,28.60
2022-07-31T12:26:30.530Z,28.70
2022-07-31T12:29:00.479Z,28.70
2022-07-31T12:31:29.813Z,28.70
2022-07-31T12:33:59.949Z,28.70
2022-07-31T12:36:28.210Z,28.90
2022-07-31T12:39:04.329Z,29.00
2022-07-31T12:41:42.179Z,29.10
2022-07-31T12:44:13.318Z,29.10
2022-07-31T12:46:42.965Z,29.10
2022-07-31T12:49:16.015Z,28.90
2022-07-31T12:51:46.993Z,28.80
2022-07-31T12:54:26.319Z,28.70
2022-07-31T12:56:54.961Z,28.60
2022-07-31T12:59:27.194Z,28.40
2022-07-31T13:01:55.608Z,28.30
2022-07-31T13:04:25.713Z,28.20
2022-07-31T13:07:22.584Z,28.00
2022-07-31T13:10:21.462Z,27.90
2022-07-31T13:12:42.134Z,27.90
2022-07-31T13:15:15.083Z,27.80
2022-07-31T13:17:48.123Z,27.80
2022-07-31T13:20:20.222Z,27.80
2022-07-31T13:22:48.534Z,27.70
2022-07-31T13:25:22.850Z,27.70
2022-07-31T13:27:51.008Z,27.60
2022-07-31T13:30:19.178Z,27.50
2022-07-31T13:32:47.295Z,27.50
2022-07-31T13:35:26.678Z,27.40
2022-07-31T13:37:58.222Z,27.30
2022-07-31T13:40:40.102Z,27.30
2022-07-31T13:43:08.610Z,27.20
2022-07-31T13:45:37.115Z,27.20
2022-07-31T13:48:09.377Z,27.20
2022-07-31T13:50:38.446Z,27.20
2022-07-31T13:53:08.616Z,27.20
2022-07-31T13:55:40.040Z,27.30
2022-07-31T13:58:08.688Z,27.30
2022-07-31T14:00:47.148Z,27.30
2022-07-31T14:03:18.393Z,27.40
2022-07-31T14:05:46.689Z,27.30
2022-07-31T14:08:32.976Z,27.40
2022-07-31T14:11:13.653Z,27.50
2022-07-31T14:13:43.202Z,27.50
2022-07-31T14:16:11.276Z,27.50
2022-07-31T14:18:39.667Z,27.40
2022-07-31T14:21:08.470Z,27.40
2022-07-31T14:23:47.017Z,27.30
2022-07-31T14:26:21.613Z,27.10
2022-07-31T14:28:49.911Z,27.10
2022-07-31T14:31:23.743Z,26.90
2022-07-31T14:33:51.969Z,26.80
2022-07-31T14:36:20.482Z,26.70
2022-07-31T14:38:50.373Z,26.70
2022-07-31T14:41:19.468Z,26.60
2022-07-31T14:43:52.475Z,26.60
2022-07-31T14:46:34.310Z,26.50
2022-07-31T14:49:06.063Z,26.40
2022-07-31T14:51:38.550Z,26.30
2022-07-31T14:54:08.180Z,26.20
2022-07-31T14:57:11.557Z,26.10
2022-07-31T14:59:26.744Z,26.10
2022-07-31T15:01:54.823Z,26.00
2022-07-31T15:04:29.650Z,25.80
2022-07-31T15:07:13.178Z,25.70
2022-07-31T15:09:47.605Z,25.60
2022-07-31T15:12:17.047Z,25.40
2022-07-31T15:14:49.297Z,25.30
2022-07-31T15:17:17.631Z,25.10
2022-07-31T15:19:46.375Z,24.70
2022-07-31T15:22:19.492Z,24.40
2022-07-31T15:24:50.256Z,24.10
2022-07-31T15:27:27.334Z,23.90
2022-07-31T15:30:03.301Z,23.70
2022-07-31T15:32:41.660Z,23.50
2022-07-31T15:35:13.320Z,23.20
2022-07-31T15:37:44.221Z,23.00
2022-07-31T15:40:18.557Z,22.70
2022-07-31T15:42:47.966Z,22.50
2022-07-31T15:45:19.191Z,22.40
2022-07-31T15:47:49.091Z,22.30
2022-07-31T15:50:20.662Z,22.20
2022-07-31T15:52:49.333Z,22.10
2022-07-31T15:55:22.438Z,22.10
2022-07-31T15:57:50.607Z,22.10
2022-07-31T16:00:20.607Z,22.20
2022-07-31T16:02:49.335Z,22.20
2022-07-31T16:05:35.756Z,22.20
2022-07-31T16:08:32.747Z,22.10
2022-07-31T16:10:57.305Z,22.20
2022-07-31T16:13:27.398Z,22.10
2022-07-31T16:15:56.259Z,22.10
2022-07-31T16:18:24.544Z,22.10
2022-07-31T16:20:53.004Z,22.10
2022-07-31T16:23:20.914Z,22.10
2022-07-31T16:25:48.825Z,22.00
2022-07-31T16:28:18.224Z,22.00
2022-07-31T16:30:46.759Z,22.00
2022-07-31T16:33:17.114Z,22.10
2022-07-31T16:35:45.049Z,22.10
2022-07-31T16:38:13.070Z,22.00
2022-07-31T16:40:41.043Z,22.00
2022-07-31T16:43:49.860Z,22.00
2022-07-31T16:45:58.660Z,22.00
2022-07-31T16:48:27.031Z,22.00
2022-07-31T16:50:55.538Z,22.00
2022-07-31T16:54:14.532Z,22.00
2022-07-31T16:56:12.517Z,22.00
2022-07-31T16:58:40.581Z,22.00
2022-07-31T17:01:53.880Z,22.10
2022-07-31T17:04:01.259Z,22.10
2022-07-31T17:06:34.672Z,22.10
2022-07-31T17:09:16.598Z,22.00
2022-07-31T17:11:47.209Z,22.00
2022-07-31T17:14:15.238Z,22.00
2022-07-31T17:16:48.836Z,22.00
2022-07-31T17:19:41.712Z,21.90
2022-07-31T17:22:11.573Z,21.90
2022-07-31T17:24:44.587Z,21.90
2022-07-31T17:27:12.654Z,21.80
2022-07-31T17:29:40.724Z,21.80
2022-07-31T17:32:11.362Z,21.70
2022-07-31T17:34:39.857Z,21.70
2022-07-31T17:37:08.408Z,21.70
2022-07-31T17:39:36.846Z,21.70
2022-07-31T17:42:09.159Z,21.70
2022-07-31T17:44:37.723Z,21.60
2022-07-31T17:47:09.870Z,21.70
2022-07-31T17:49:38.156Z,21.60
2022-07-31T17:52:06.597Z,21.50
2022-07-31T17:54:34.579Z,21.40
2022-07-31T17:57:03.065Z,21.30
2022-07-31T17:59:31.394Z,21.20
2022-07-31T18:02:00.777Z,21.10
2022-07-31T18:04:32.680Z,21.00
2022-07-31T18:07:04.203Z,20.80
2022-07-31T18:09:33.908Z,20.70
2022-07-31T18:12:02.696Z,20.60
2022-07-31T18:14:30.943Z,20.50
2022-07-31T18:16:58.919Z,20.50
2022-07-31T18:19:26.884Z,20.40
2022-07-31T18:21:56.386Z,20.40
2022-07-31T18:24:27.103Z,20.40
2022-07-31T18:26:55.128Z,20.40
2022-07-31T18:29:23.181Z,20.30
2022-07-31T18:31:51.332Z,20.30
2022-07-31T18:34:19.330Z,20.40
2022-07-31T18:36:54.257Z,20.30
2022-07-31T18:39:24.413Z,20.30
2022-07-31T18:41:52.384Z,20.30
2022-07-31T18:44:24.943Z,20.40
2022-07-31T18:46:55.643Z,20.30
2022-07-31T18:51:01.845Z,20.30
2022-07-31T18:52:11.658Z,20.30
2022-07-31T18:54:42.718Z,20.30
2022-07-31T18:57:10.970Z,20.30
2022-07-31T18:59:38.956Z,20.30
2022-07-31T19:02:09.615Z,20.40
2022-07-31T19:04:40.203Z,20.30
2022-07-31T19:07:08.717Z,20.40
2022-07-31T19:09:36.713Z,20.40
2022-07-31T19:12:08.607Z,20.40
2022-07-31T19:14:36.873Z,20.40
2022-07-31T19:17:04.888Z,20.40
2022-07-31T19:19:55.067Z,20.40
2022-07-31T19:22:22.920Z,20.40
2022-07-31T19:24:50.874Z,20.40
2022-07-31T19:27:20.337Z,20.40
2022-07-31T19:29:48.361Z,20.40
2022-07-31T19:32:16.353Z,20.40
2022-07-31T19:34:47.870Z,20.40
2022-07-31T19:37:18.210Z,20.30
2022-07-31T19:39:52.934Z,20.10
2022-07-31T19:42:22.366Z,20.00
2022-07-31T19:44:52.487Z,19.90
2022-07-31T19:47:21.024Z,19.90
2022-07-31T19:49:50.778Z,19.80
2022-07-31T19:52:21.178Z,19.80
2022-07-31T19:54:49.285Z,19.80
2022-07-31T19:57:19.490Z,19.80
2022-07-31T19:59:50.639Z,19.80
2022-07-31T20:02:18.697Z,19.80
2022-07-31T20:04:46.914Z,19.80
2022-07-31T20:07:15.173Z,19.80
2022-07-31T20:09:50.079Z,19.80
2022-07-31T20:12:18.120Z,19.80
2022-07-31T20:14:46.232Z,19.80
2022-07-31T20:17:18.188Z,19.90
2022-07-31T20:20:01.644Z,19.90
2022-07-31T20:22:35.019Z,19.80
2022-07-31T20:25:19.522Z,19.80
2022-07-31T20:27:49.051Z,19.80
2022-07-31T20:30:21.811Z,19.80
2022-07-31T20:32:51.638Z,19.90
2022-07-31T20:35:33.114Z,19.90
2022-07-31T20:38:08.112Z,19.90
2022-07-31T20:40:39.965Z,19.80
2022-07-31T20:43:07.892Z,19.80
2022-07-31T20:45:41.559Z,19.90
2022-07-31T20:48:11.116Z,19.80
2022-07-31T20:50:39.007Z,19.80
2022-07-31T20:53:07.156Z,19.90
2022-07-31T20:55:36.209Z,19.90
2022-07-31T20:58:04.106Z,19.80
2022-07-31T21:00:34.053Z,19.80
2022-07-31T21:03:01.975Z,19.80
2022-07-31T21:05:31.515Z,19.70
2022-07-31T21:07:59.576Z,19.60
2022-07-31T21:10:29.756Z,19.60
2022-07-31T21:12:58.399Z,19.60
2022-07-31T21:15:42.143Z,19.60
2022-07-31T21:18:13.909Z,19.70
2022-07-31T21:20:51.588Z,19.70
2022-07-31T21:23:22.774Z,19.70
2022-07-31T21:25:51.123Z,19.70
2022-07-31T21:28:19.506Z,19.70
2022-07-31T21:30:48.131Z,19.80
2022-07-31T21:33:24.565Z,19.80
2022-07-31T21:35:59.334Z,19.80
2022-07-31T21:38:27.646Z,19.80
2022-07-31T21:40:55.725Z,19.80
2022-07-31T21:43:33.438Z,19.70
2022-07-31T21:46:14.140Z,19.70
2022-07-31T21:48:45.642Z,19.70
2022-07-31T21:51:15.941Z,19.80
2022-07-31T21:53:44.637Z,19.80
2022-07-31T21:56:16.101Z,19.80
2022-07-31T21:58:44.833Z,19.90
2022-07-31T22:01:15.018Z,19.90
2022-07-31T22:03:43.592Z,19.90
2022-07-31T22:06:26.294Z,19.90
2022-07-31T22:08:56.671Z,20.00
2022-07-31T22:11:24.859Z,20.00
2022-07-31T22:13:52.776Z,20.00
2022-07-31T22:16:20.642Z,20.00
2022-07-31T22:18:49.068Z,19.90
2022-07-31T22:21:19.521Z,20.00
2022-07-31T22:23:47.806Z,20.00
2022-07-31T22:26:17.466Z,20.00
2022-07-31T22:28:45.904Z,19.90
2022-07-31T22:31:14.222Z,19.90
2022-07-31T22:33:42.314Z,19.90
2022-07-31T22:36:10.553Z,19.90
2022-07-31T22:38:38.626Z,19.90
2022-07-31T22:41:06.685Z,19.90
2022-07-31T22:44:09.863Z,19.90
2022-07-31T22:46:24.804Z,20.00
2022-07-31T22:48:54.029Z,20.00
2022-07-31T22:51:22.055Z,19.90
2022-07-31T22:53:50.379Z,20.00
2022-07-31T22:56:18.490Z,20.00
2022-07-31T22:58:48.705Z,20.00
2022-07-31T23:01:16.546Z,20.00
2022-07-31T23:03:44.452Z,20.00
2022-07-31T23:06:30.843Z,20.10
2022-07-31T23:09:02.259Z,20.10
2022-07-31T23:11:30.275Z,20.10
2022-07-31T23:13:59.595Z,20.10
2022-07-31T23:16:27.966Z,20.00
2022-07-31T23:18:56.097Z,20.10
2022-07-31T23:21:24.041Z,20.10
2022-07-31T23:23:51.991Z,20.10
2022-07-31T23:26:20.390Z,20.10
2022-07-31T23:28:48.746Z,20.10
2022-07-31T23:31:21.324Z,20.20
2022-07-31T23:33:50.383Z,20.20
2022-07-31T23:36:18.868Z,20.30
2022-07-31T23:38:47.278Z,20.20
2022-07-31T23:41:15.708Z,20.20
2022-07-31T23:43:55.396Z,20.20
2022-07-31T23:46:27.015Z,20.30
2022-07-31T23:48:56.021Z,20.20
2022-07-31T23:51:24.008Z,20.20
2022-07-31T23:53:51.948Z,20.20
2022-07-31T23:56:19.959Z,20.20
2022-07-31T23:58:47.995Z,20.20
